sensor_id;sensor_type;location;lat;lon;timestamp;P1;durP1;ratioP1;P2;durP2;ratioP2
20073;SDS011;10197;54.282;10.078;2022-12-07T00:00:51;12.80;;;9.43;;
20073;SDS011;10197;54.282;10.078;2022-12-07T00:03:19;13.50;;;10.52;;
20073;SDS011;10197;54.282;10.078;2022-12-07T00:05:46;11.60;;;9.48;;
20073;SDS011;10197;54.282;10.078;2022-12-07T00:08:12;12.82;;;10.25;;
20073;SDS011;10197;54.282;10.078;2022-12-07T00:10:41;13.93;;;9.98;;
20073;SDS011;10197;54.282;10.078;2022-12-07T00:13:07;12.98;;;9.88;;
20073;SDS011;10197;54.282;10.078;2022-12-07T00:15:34;11.57;;;9.27;;
20073;SDS011;10197;54.282;10.078;2022-12-07T00:18:02;13.23;;;9.40;;
20073;SDS011;10197;54.282;10.078;2022-12-07T00:20:29;13.02;;;9.52;;
20073;SDS011;10197;54.282;10.078;2022-12-07T00:22:56;13.05;;;8.98;;
20073;SDS011;10197;54.282;10.078;2022-12-07T00:25:23;13.43;;;9.82;;
20073;SDS011;10197;54.282;10.078;2022-12-07T00:27:53;13.10;;;9.90;;
20073;SDS011;10197;54.282;10.078;2022-12-07T00:30:21;12.20;;;9.48;;
20073;SDS011;10197;54.282;10.078;2022-12-07T00:32:48;15.13;;;10.32;;
20073;SDS011;10197;54.282;10.078;2022-12-07T00:35:15;12.32;;;9.27;;
20073;SDS011;10197;54.282;10.078;2022-12-07T00:37:42;12.93;;;9.60;;
20073;SDS011;10197;54.282;10.078;2022-12-07T00:40:09;12.13;;;9.15;;
20073;SDS011;10197;54.282;10.078;2022-12-07T00:42:37;11.55;;;9.50;;
20073;SDS011;10197;54.282;10.078;2022-12-07T00:45:06;13.07;;;9.50;;
20073;SDS011;10197;54.282;10.078;2022-12-07T00:47:34;11.98;;;9.63;;
20073;SDS011;10197;54.282;10.078;2022-12-07T00:50:01;12.13;;;9.35;;
20073;SDS011;10197;54.282;10.078;2022-12-07T00:52:28;12.75;;;9.65;;
20073;SDS011;10197;54.282;10.078;2022-12-07T00:54:54;12.43;;;8.85;;
20073;SDS011;10197;54.282;10.078;2022-12-07T00:57:21;11.85;;;9.38;;
20073;SDS011;10197;54.282;10.078;2022-12-07T00:59:48;13.57;;;10.07;;
20073;SDS011;10197;54.282;10.078;2022-12-07T01:02:16;14.65;;;9.60;;
20073;SDS011;10197;54.282;10.078;2022-12-07T01:04:43;11.77;;;9.55;;
20073;SDS011;10197;54.282;10.078;2022-12-07T01:07:11;12.30;;;9.30;;
20073;SDS011;10197;54.282;10.078;2022-12-07T01:09:38;14.07;;;9.48;;
20073;SDS011;10197;54.282;10.078;2022-12-07T01:12:05;12.07;;;7.70;;
20073;SDS011;10197;54.282;10.078;2022-12-07T01:14:31;11.13;;;7.38;;
20073;SDS011;10197;54.282;10.078;2022-12-07T01:16:58;10.07;;;7.22;;
20073;SDS011;10197;54.282;10.078;2022-12-07T01:19:27;13.48;;;7.45;;
20073;SDS011;10197;54.282;10.078;2022-12-07T01:21:54;10.05;;;6.47;;
20073;SDS011;10197;54.282;10.078;2022-12-07T01:24:21;8.63;;;5.85;;
20073;SDS011;10197;54.282;10.078;2022-12-07T01:26:48;9.52;;;7.05;;
20073;SDS011;10197;54.282;10.078;2022-12-07T01:29:16;9.30;;;6.07;;
20073;SDS011;10197;54.282;10.078;2022-12-07T01:31:42;7.68;;;5.70;;
20073;SDS011;10197;54.282;10.078;2022-12-07T01:34:09;7.85;;;6.00;;
20073;SDS011;10197;54.282;10.078;2022-12-07T01:36:38;8.35;;;5.63;;
20073;SDS011;10197;54.282;10.078;2022-12-07T01:39:06;7.47;;;5.30;;
20073;SDS011;10197;54.282;10.078;2022-12-07T01:41:34;8.23;;;5.18;;
20073;SDS011;10197;54.282;10.078;2022-12-07T01:44:09;7.65;;;5.10;;
20073;SDS011;10197;54.282;10.078;2022-12-07T01:46:38;10.52;;;4.78;;
20073;SDS011;10197;54.282;10.078;2022-12-07T01:49:05;8.13;;;4.60;;
20073;SDS011;10197;54.282;10.078;2022-12-07T01:51:33;5.93;;;4.60;;
20073;SDS011;10197;54.282;10.078;2022-12-07T01:54:04;8.10;;;4.60;;
20073;SDS011;10197;54.282;10.078;2022-12-07T01:56:32;6.53;;;4.22;;
20073;SDS011;10197;54.282;10.078;2022-12-07T01:58:59;6.13;;;4.78;;
20073;SDS011;10197;54.282;10.078;2022-12-07T02:01:27;8.05;;;4.90;;
20073;SDS011;10197;54.282;10.078;2022-12-07T02:03:54;8.38;;;4.97;;
20073;SDS011;10197;54.282;10.078;2022-12-07T02:06:22;8.18;;;4.90;;
20073;SDS011;10197;54.282;10.078;2022-12-07T02:08:51;7.45;;;4.85;;
20073;SDS011;10197;54.282;10.078;2022-12-07T02:11:19;6.72;;;4.80;;
20073;SDS011;10197;54.282;10.078;2022-12-07T02:13:47;9.00;;;5.28;;
20073;SDS011;10197;54.282;10.078;2022-12-07T02:16:17;9.43;;;6.82;;
20073;SDS011;10197;54.282;10.078;2022-12-07T02:18:55;10.43;;;7.07;;
20073;SDS011;10197;54.282;10.078;2022-12-07T02:21:31;9.80;;;7.10;;
20073;SDS011;10197;54.282;10.078;2022-12-07T02:24:16;11.65;;;8.57;;
20073;SDS011;10197;54.282;10.078;2022-12-07T02:27:04;14.18;;;8.70;;
20073;SDS011;10197;54.282;10.078;2022-12-07T02:29:40;12.43;;;9.07;;
20073;SDS011;10197;54.282;10.078;2022-12-07T02:32:12;14.48;;;9.73;;
20073;SDS011;10197;54.282;10.078;2022-12-07T02:34:44;13.52;;;8.80;;
20073;SDS011;10197;54.282;10.078;2022-12-07T02:37:18;12.50;;;9.20;;
20073;SDS011;10197;54.282;10.078;2022-12-07T02:39:53;14.45;;;9.38;;
20073;SDS011;10197;54.282;10.078;2022-12-07T02:42:25;15.30;;;10.95;;
20073;SDS011;10197;54.282;10.078;2022-12-07T02:44:57;14.55;;;10.02;;
20073;SDS011;10197;54.282;10.078;2022-12-07T02:47:28;14.35;;;9.00;;
20073;SDS011;10197;54.282;10.078;2022-12-07T02:49:56;14.63;;;10.98;;
20073;SDS011;10197;54.282;10.078;2022-12-07T02:52:23;15.02;;;10.38;;
20073;SDS011;10197;54.282;10.078;2022-12-07T02:54:49;14.05;;;10.38;;
20073;SDS011;10197;54.282;10.078;2022-12-07T02:57:23;19.08;;;10.38;;
20073;SDS011;10197;54.282;10.078;2022-12-07T03:00:07;14.98;;;10.05;;
20073;SDS011;10197;54.282;10.078;2022-12-07T03:02:37;16.13;;;10.50;;
20073;SDS011;10197;54.282;10.078;2022-12-07T03:05:12;15.30;;;10.70;;
20073;SDS011;10197;54.282;10.078;2022-12-07T03:07:45;15.57;;;10.65;;
20073;SDS011;10197;54.282;10.078;2022-12-07T03:10:18;14.45;;;10.65;;
20073;SDS011;10197;54.282;10.078;2022-12-07T03:12:51;17.88;;;11.00;;
20073;SDS011;10197;54.282;10.078;2022-12-07T03:15:27;16.42;;;10.45;;
20073;SDS011;10197;54.282;10.078;2022-12-07T03:17:57;15.48;;;11.07;;
20073;SDS011;10197;54.282;10.078;2022-12-07T03:20:25;16.25;;;10.45;;
20073;SDS011;10197;54.282;10.078;2022-12-07T03:22:53;13.20;;;9.80;;
20073;SDS011;10197;54.282;10.078;2022-12-07T03:25:21;14.82;;;10.50;;
20073;SDS011;10197;54.282;10.078;2022-12-07T03:27:49;15.05;;;10.65;;
20073;SDS011;10197;54.282;10.078;2022-12-07T03:30:22;13.02;;;9.95;;
20073;SDS011;10197;54.282;10.078;2022-12-07T03:32:52;14.15;;;9.63;;
20073;SDS011;10197;54.282;10.078;2022-12-07T03:35:22;15.23;;;10.52;;
20073;SDS011;10197;54.282;10.078;2022-12-07T03:37:52;13.82;;;10.20;;
20073;SDS011;10197;54.282;10.078;2022-12-07T03:40:22;15.55;;;10.70;;
20073;SDS011;10197;54.282;10.078;2022-12-07T03:42:52;16.13;;;12.13;;
20073;SDS011;10197;54.282;10.078;2022-12-07T03:45:20;14.43;;;10.85;;
20073;SDS011;10197;54.282;10.078;2022-12-07T03:47:53;14.20;;;11.18;;
20073;SDS011;10197;54.282;10.078;2022-12-07T03:50:25;13.30;;;10.35;;
20073;SDS011;10197;54.282;10.078;2022-12-07T03:52:56;13.48;;;9.93;;
20073;SDS011;10197;54.282;10.078;2022-12-07T03:55:26;14.88;;;10.30;;
20073;SDS011;10197;54.282;10.078;2022-12-07T03:57:56;13.45;;;9.90;;
20073;SDS011;10197;54.282;10.078;2022-12-07T04:00:24;14.13;;;10.10;;
20073;SDS011;10197;54.282;10.078;2022-12-07T04:02:53;11.35;;;9.15;;
20073;SDS011;10197;54.282;10.078;2022-12-07T04:05:20;12.85;;;9.38;;
20073;SDS011;10197;54.282;10.078;2022-12-07T04:07:47;12.90;;;9.88;;
20073;SDS011;10197;54.282;10.078;2022-12-07T04:10:14;12.35;;;9.68;;
20073;SDS011;10197;54.282;10.078;2022-12-07T04:12:42;16.55;;;11.07;;
20073;SDS011;10197;54.282;10.078;2022-12-07T04:15:09;17.00;;;10.60;;
20073;SDS011;10197;54.282;10.078;2022-12-07T04:17:36;14.15;;;10.52;;
20073;SDS011;10197;54.282;10.078;2022-12-07T04:20:06;16.33;;;11.65;;
20073;SDS011;10197;54.282;10.078;2022-12-07T04:22:33;17.20;;;12.15;;
20073;SDS011;10197;54.282;10.078;2022-12-07T04:25:00;15.77;;;11.82;;
20073;SDS011;10197;54.282;10.078;2022-12-07T04:27:27;18.00;;;11.75;;
20073;SDS011;10197;54.282;10.078;2022-12-07T04:29:54;17.13;;;11.45;;
20073;SDS011;10197;54.282;10.078;2022-12-07T04:32:21;18.77;;;13.00;;
20073;SDS011;10197;54.282;10.078;2022-12-07T04:34:48;20.67;;;12.70;;
20073;SDS011;10197;54.282;10.078;2022-12-07T04:37:17;22.08;;;12.93;;
20073;SDS011;10197;54.282;10.078;2022-12-07T04:39:44;19.50;;;14.05;;
20073;SDS011;10197;54.282;10.078;2022-12-07T04:42:11;21.50;;;13.23;;
20073;SDS011;10197;54.282;10.078;2022-12-07T04:44:39;19.15;;;12.82;;
20073;SDS011;10197;54.282;10.078;2022-12-07T04:47:06;19.27;;;13.30;;
20073;SDS011;10197;54.282;10.078;2022-12-07T04:49:33;20.45;;;13.07;;
20073;SDS011;10197;54.282;10.078;2022-12-07T04:52:00;19.42;;;12.95;;
20073;SDS011;10197;54.282;10.078;2022-12-07T04:54:28;20.02;;;13.05;;
20073;SDS011;10197;54.282;10.078;2022-12-07T04:56:55;20.35;;;13.07;;
20073;SDS011;10197;54.282;10.078;2022-12-07T04:59:22;22.77;;;14.10;;
20073;SDS011;10197;54.282;10.078;2022-12-07T05:01:49;19.08;;;13.00;;
20073;SDS011;10197;54.282;10.078;2022-12-07T05:04:17;19.33;;;12.27;;
20073;SDS011;10197;54.282;10.078;2022-12-07T05:06:45;18.77;;;12.50;;
20073;SDS011;10197;54.282;10.078;2022-12-07T05:09:12;17.33;;;12.52;;
20073;SDS011;10197;54.282;10.078;2022-12-07T05:11:40;17.45;;;11.50;;
20073;SDS011;10197;54.282;10.078;2022-12-07T05:14:10;18.20;;;12.13;;
20073;SDS011;10197;54.282;10.078;2022-12-07T05:16:38;19.48;;;12.40;;
20073;SDS011;10197;54.282;10.078;2022-12-07T05:19:05;18.80;;;12.57;;
20073;SDS011;10197;54.282;10.078;2022-12-07T05:21:32;16.02;;;11.32;;
20073;SDS011;10197;54.282;10.078;2022-12-07T05:23:59;18.10;;;11.85;;
20073;SDS011;10197;54.282;10.078;2022-12-07T05:26:27;16.95;;;10.73;;
20073;SDS011;10197;54.282;10.078;2022-12-07T05:28:56;16.27;;;11.05;;
20073;SDS011;10197;54.282;10.078;2022-12-07T05:31:24;14.50;;;10.00;;
20073;SDS011;10197;54.282;10.078;2022-12-07T05:33:51;17.77;;;11.57;;
20073;SDS011;10197;54.282;10.078;2022-12-07T05:36:18;16.50;;;11.00;;
20073;SDS011;10197;54.282;10.078;2022-12-07T05:38:45;17.67;;;11.35;;
20073;SDS011;10197;54.282;10.078;2022-12-07T05:41:14;15.38;;;10.55;;
20073;SDS011;10197;54.282;10.078;2022-12-07T05:44:01;18.10;;;11.15;;
20073;SDS011;10197;54.282;10.078;2022-12-07T05:46:28;16.00;;;10.60;;
20073;SDS011;10197;54.282;10.078;2022-12-07T05:48:55;19.27;;;11.77;;
20073;SDS011;10197;54.282;10.078;2022-12-07T05:51:22;15.52;;;11.00;;
20073;SDS011;10197;54.282;10.078;2022-12-07T05:53:49;19.33;;;11.10;;
20073;SDS011;10197;54.282;10.078;2022-12-07T05:56:16;15.27;;;10.82;;
20073;SDS011;10197;54.282;10.078;2022-12-07T05:58:43;21.67;;;11.52;;
20073;SDS011;10197;54.282;10.078;2022-12-07T06:01:28;17.92;;;10.93;;
20073;SDS011;10197;54.282;10.078;2022-12-07T06:03:55;17.30;;;10.27;;
20073;SDS011;10197;54.282;10.078;2022-12-07T06:06:22;16.33;;;11.32;;
20073;SDS011;10197;54.282;10.078;2022-12-07T06:08:49;16.63;;;9.73;;
20073;SDS011;10197;54.282;10.078;2022-12-07T06:11:16;12.07;;;8.93;;
20073;SDS011;10197;54.282;10.078;2022-12-07T06:14:01;13.27;;;9.50;;
20073;SDS011;10197;54.282;10.078;2022-12-07T06:16:29;13.80;;;9.52;;
20073;SDS011;10197;54.282;10.078;2022-12-07T06:18:56;12.43;;;8.30;;
20073;SDS011;10197;54.282;10.078;2022-12-07T06:21:23;12.57;;;8.32;;
20073;SDS011;10197;54.282;10.078;2022-12-07T06:23:59;14.95;;;9.23;;
20073;SDS011;10197;54.282;10.078;2022-12-07T06:26:35;17.98;;;9.40;;
20073;SDS011;10197;54.282;10.078;2022-12-07T06:29:03;15.02;;;9.15;;
20073;SDS011;10197;54.282;10.078;2022-12-07T06:31:31;13.18;;;8.15;;
20073;SDS011;10197;54.282;10.078;2022-12-07T06:33:58;14.73;;;9.35;;
20073;SDS011;10197;54.282;10.078;2022-12-07T06:36:25;12.60;;;8.30;;
20073;SDS011;10197;54.282;10.078;2022-12-07T06:38:52;13.05;;;8.63;;
20073;SDS011;10197;54.282;10.078;2022-12-07T06:41:19;11.30;;;7.68;;
20073;SDS011;10197;54.282;10.078;2022-12-07T06:43:46;11.63;;;8.18;;
20073;SDS011;10197;54.282;10.078;2022-12-07T06:46:13;12.15;;;8.45;;
20073;SDS011;10197;54.282;10.078;2022-12-07T06:48:42;10.68;;;7.90;;
20073;SDS011;10197;54.282;10.078;2022-12-07T06:51:09;11.45;;;7.78;;
20073;SDS011;10197;54.282;10.078;2022-12-07T06:53:37;14.00;;;8.07;;
20073;SDS011;10197;54.282;10.078;2022-12-07T06:56:04;11.88;;;7.68;;
20073;SDS011;10197;54.282;10.078;2022-12-07T06:58:31;14.43;;;8.27;;
20073;SDS011;10197;54.282;10.078;2022-12-07T07:00:58;11.98;;;8.30;;
20073;SDS011;10197;54.282;10.078;2022-12-07T07:03:25;13.45;;;7.80;;
20073;SDS011;10197;54.282;10.078;2022-12-07T07:05:53;13.70;;;7.78;;
20073;SDS011;10197;54.282;10.078;2022-12-07T07:08:20;11.43;;;7.78;;
20073;SDS011;10197;54.282;10.078;2022-12-07T07:10:47;39.72;;;9.30;;
20073;SDS011;10197;54.282;10.078;2022-12-07T07:13:14;16.30;;;7.38;;
20073;SDS011;10197;54.282;10.078;2022-12-07T07:15:41;12.07;;;7.38;;
20073;SDS011;10197;54.282;10.078;2022-12-07T07:18:08;16.85;;;7.25;;
20073;SDS011;10197;54.282;10.078;2022-12-07T07:20:36;11.10;;;6.53;;
20073;SDS011;10197;54.282;10.078;2022-12-07T07:23:05;12.30;;;6.90;;
20073;SDS011;10197;54.282;10.078;2022-12-07T07:25:33;12.50;;;7.28;;
20073;SDS011;10197;54.282;10.078;2022-12-07T07:31:05;9.18;;;5.80;;
20073;SDS011;10197;54.282;10.078;2022-12-07T07:33:32;11.90;;;5.70;;
20073;SDS011;10197;54.282;10.078;2022-12-07T07:36:00;8.30;;;5.97;;
20073;SDS011;10197;54.282;10.078;2022-12-07T07:38:29;9.65;;;5.80;;
20073;SDS011;10197;54.282;10.078;2022-12-07T07:40:56;12.02;;;5.88;;
20073;SDS011;10197;54.282;10.078;2022-12-07T07:43:24;9.88;;;5.50;;
20073;SDS011;10197;54.282;10.078;2022-12-07T07:45:51;8.60;;;5.20;;
20073;SDS011;10197;54.282;10.078;2022-12-07T07:48:21;8.57;;;5.35;;
20073;SDS011;10197;54.282;10.078;2022-12-07T07:50:50;7.07;;;4.72;;
20073;SDS011;10197;54.282;10.078;2022-12-07T07:53:18;12.82;;;5.93;;
20073;SDS011;10197;54.282;10.078;2022-12-07T07:55:51;7.28;;;5.32;;
20073;SDS011;10197;54.282;10.078;2022-12-07T08:01:27;11.88;;;5.70;;
20073;SDS011;10197;54.282;10.078;2022-12-07T08:03:57;9.45;;;5.65;;
20073;SDS011;10197;54.282;10.078;2022-12-07T08:06:27;11.48;;;5.97;;
20073;SDS011;10197;54.282;10.078;2022-12-07T08:08:53;8.25;;;5.28;;
20073;SDS011;10197;54.282;10.078;2022-12-07T08:11:24;15.95;;;8.70;;
20073;SDS011;10197;54.282;10.078;2022-12-07T08:13:51;12.85;;;6.97;;
20073;SDS011;10197;54.282;10.078;2022-12-07T08:16:18;9.70;;;5.75;;
20073;SDS011;10197;54.282;10.078;2022-12-07T08:18:45;6.28;;;5.15;;
20073;SDS011;10197;54.282;10.078;2022-12-07T08:21:12;7.63;;;4.82;;
20073;SDS011;10197;54.282;10.078;2022-12-07T08:23:40;6.20;;;4.80;;
20073;SDS011;10197;54.282;10.078;2022-12-07T08:26:08;7.60;;;5.43;;
20073;SDS011;10197;54.282;10.078;2022-12-07T08:28:37;9.85;;;7.50;;
20073;SDS011;10197;54.282;10.078;2022-12-07T08:31:05;9.23;;;7.70;;
20073;SDS011;10197;54.282;10.078;2022-12-07T08:33:33;8.88;;;7.25;;
20073;SDS011;10197;54.282;10.078;2022-12-07T08:36:02;10.60;;;6.00;;
20073;SDS011;10197;54.282;10.078;2022-12-07T08:38:30;8.95;;;5.07;;
20073;SDS011;10197;54.282;10.078;2022-12-07T08:40:57;7.40;;;4.20;;
20073;SDS011;10197;54.282;10.078;2022-12-07T08:43:24;8.98;;;3.90;;
20073;SDS011;10197;54.282;10.078;2022-12-07T08:45:55;6.55;;;3.60;;
20073;SDS011;10197;54.282;10.078;2022-12-07T08:48:25;17.33;;;11.95;;
20073;SDS011;10197;54.282;10.078;2022-12-07T08:50:52;18.63;;;15.27;;
20073;SDS011;10197;54.282;10.078;2022-12-07T08:53:19;26.35;;;21.08;;
20073;SDS011;10197;54.282;10.078;2022-12-07T08:55:47;41.30;;;31.98;;
20073;SDS011;10197;54.282;10.078;2022-12-07T08:58:15;15.23;;;9.43;;
20073;SDS011;10197;54.282;10.078;2022-12-07T09:00:42;11.40;;;8.80;;
20073;SDS011;10197;54.282;10.078;2022-12-07T09:03:10;7.60;;;4.88;;
20073;SDS011;10197;54.282;10.078;2022-12-07T09:05:37;14.45;;;3.90;;
20073;SDS011;10197;54.282;10.078;2022-12-07T09:08:04;5.07;;;3.45;;
20073;SDS011;10197;54.282;10.078;2022-12-07T09:10:31;7.43;;;3.60;;
20073;SDS011;10197;54.282;10.078;2022-12-07T09:12:58;10.82;;;3.50;;
20073;SDS011;10197;54.282;10.078;2022-12-07T09:15:26;7.47;;;2.90;;
20073;SDS011;10197;54.282;10.078;2022-12-07T09:17:53;15.27;;;6.65;;
20073;SDS011;10197;54.282;10.078;2022-12-07T09:20:22;27.48;;;12.73;;
20073;SDS011;10197;54.282;10.078;2022-12-07T09:22:49;19.70;;;9.75;;
20073;SDS011;10197;54.282;10.078;2022-12-07T09:25:15;33.90;;;16.10;;
20073;SDS011;10197;54.282;10.078;2022-12-07T09:27:43;14.82;;;7.13;;
20073;SDS011;10197;54.282;10.078;2022-12-07T09:30:10;8.63;;;2.72;;
20073;SDS011;10197;54.282;10.078;2022-12-07T09:32:38;9.25;;;2.40;;
20073;SDS011;10197;54.282;10.078;2022-12-07T09:35:05;6.88;;;2.17;;
20073;SDS011;10197;54.282;10.078;2022-12-07T09:37:34;4.43;;;2.00;;
20073;SDS011;10197;54.282;10.078;2022-12-07T09:40:02;3.20;;;2.05;;
20073;SDS011;10197;54.282;10.078;2022-12-07T09:42:30;6.72;;;2.20;;
20073;SDS011;10197;54.282;10.078;2022-12-07T09:45:01;6.55;;;2.17;;
20073;SDS011;10197;54.282;10.078;2022-12-07T09:47:29;5.85;;;2.03;;
20073;SDS011;10197;54.282;10.078;2022-12-07T09:49:58;5.43;;;2.03;;
20073;SDS011;10197;54.282;10.078;2022-12-07T09:52:29;9.55;;;2.33;;
20073;SDS011;10197;54.282;10.078;2022-12-07T09:54:58;5.25;;;2.28;;
20073;SDS011;10197;54.282;10.078;2022-12-07T09:57:27;7.30;;;2.58;;
20073;SDS011;10197;54.282;10.078;2022-12-07T09:59:55;6.88;;;2.10;;
20073;SDS011;10197;54.282;10.078;2022-12-07T10:02:24;5.85;;;2.10;;
20073;SDS011;10197;54.282;10.078;2022-12-07T10:04:54;7.95;;;2.25;;
20073;SDS011;10197;54.282;10.078;2022-12-07T10:07:22;5.25;;;2.72;;
20073;SDS011;10197;54.282;10.078;2022-12-07T10:09:49;11.52;;;6.32;;
20073;SDS011;10197;54.282;10.078;2022-12-07T10:12:18;10.40;;;4.70;;
20073;SDS011;10197;54.282;10.078;2022-12-07T10:14:53;6.22;;;3.70;;
20073;SDS011;10197;54.282;10.078;2022-12-07T10:17:29;5.93;;;2.42;;
20073;SDS011;10197;54.282;10.078;2022-12-07T10:20:11;5.18;;;2.13;;
20073;SDS011;10197;54.282;10.078;2022-12-07T10:22:53;5.00;;;2.10;;
20073;SDS011;10197;54.282;10.078;2022-12-07T10:25:25;7.78;;;2.38;;
20073;SDS011;10197;54.282;10.078;2022-12-07T10:27:58;9.05;;;2.10;;
20073;SDS011;10197;54.282;10.078;2022-12-07T10:30:31;5.38;;;2.30;;
20073;SDS011;10197;54.282;10.078;2022-12-07T10:32:58;4.25;;;2.20;;
20073;SDS011;10197;54.282;10.078;2022-12-07T10:35:26;3.55;;;2.35;;
20073;SDS011;10197;54.282;10.078;2022-12-07T10:37:54;7.68;;;2.67;;
20073;SDS011;10197;54.282;10.078;2022-12-07T10:40:30;7.20;;;2.17;;
20073;SDS011;10197;54.282;10.078;2022-12-07T10:43:05;10.77;;;2.58;;
20073;SDS011;10197;54.282;10.078;2022-12-07T10:45:42;7.93;;;2.08;;
20073;SDS011;10197;54.282;10.078;2022-12-07T10:48:23;4.25;;;2.50;;
20073;SDS011;10197;54.282;10.078;2022-12-07T10:50:57;6.53;;;1.98;;
20073;SDS011;10197;54.282;10.078;2022-12-07T10:53:39;8.63;;;2.28;;
20073;SDS011;10197;54.282;10.078;2022-12-07T10:56:23;7.10;;;1.85;;
20073;SDS011;10197;54.282;10.078;2022-12-07T10:59:16;6.32;;;2.35;;
20073;SDS011;10197;54.282;10.078;2022-12-07T11:01:52;3.15;;;1.85;;
20073;SDS011;10197;54.282;10.078;2022-12-07T11:04:24;5.50;;;2.17;;
20073;SDS011;10197;54.282;10.078;2022-12-07T11:06:58;5.13;;;2.50;;
20073;SDS011;10197;54.282;10.078;2022-12-07T11:12:21;4.75;;;2.08;;
20073;SDS011;10197;54.282;10.078;2022-12-07T11:14:58;5.28;;;1.70;;
20073;SDS011;10197;54.282;10.078;2022-12-07T11:17:31;6.07;;;1.63;;
20073;SDS011;10197;54.282;10.078;2022-12-07T11:20:02;7.75;;;2.17;;
20073;SDS011;10197;54.282;10.078;2022-12-07T11:22:35;8.43;;;1.80;;
20073;SDS011;10197;54.282;10.078;2022-12-07T11:25:13;5.68;;;1.70;;
20073;SDS011;10197;54.282;10.078;2022-12-07T11:27:45;5.82;;;1.90;;
20073;SDS011;10197;54.282;10.078;2022-12-07T11:30:18;3.92;;;1.98;;
20073;SDS011;10197;54.282;10.078;2022-12-07T11:32:57;7.13;;;1.60;;
20073;SDS011;10197;54.282;10.078;2022-12-07T11:35:31;3.80;;;1.60;;
20073;SDS011;10197;54.282;10.078;2022-12-07T11:38:08;5.18;;;1.80;;
20073;SDS011;10197;54.282;10.078;2022-12-07T11:40:38;4.43;;;1.60;;
20073;SDS011;10197;54.282;10.078;2022-12-07T11:43:09;6.80;;;1.92;;
20073;SDS011;10197;54.282;10.078;2022-12-07T11:45:43;5.13;;;1.67;;
20073;SDS011;10197;54.282;10.078;2022-12-07T11:48:14;3.58;;;1.42;;
20073;SDS011;10197;54.282;10.078;2022-12-07T11:50:44;2.90;;;1.55;;
20073;SDS011;10197;54.282;10.078;2022-12-07T11:53:15;3.25;;;2.05;;
20073;SDS011;10197;54.282;10.078;2022-12-07T11:55:47;3.67;;;2.05;;
20073;SDS011;10197;54.282;10.078;2022-12-07T11:58:22;7.68;;;4.55;;
20073;SDS011;10197;54.282;10.078;2022-12-07T12:01:08;8.10;;;5.03;;
20073;SDS011;10197;54.282;10.078;2022-12-07T12:03:41;4.25;;;3.20;;
20073;SDS011;10197;54.282;10.078;2022-12-07T12:06:10;2.63;;;2.15;;
20073;SDS011;10197;54.282;10.078;2022-12-07T12:08:42;4.40;;;2.10;;
20073;SDS011;10197;54.282;10.078;2022-12-07T12:11:15;6.68;;;1.75;;
20073;SDS011;10197;54.282;10.078;2022-12-07T12:16:56;3.75;;;1.50;;
20073;SDS011;10197;54.282;10.078;2022-12-07T12:19:32;5.15;;;2.00;;
20073;SDS011;10197;54.282;10.078;2022-12-07T12:22:03;6.50;;;1.60;;
20073;SDS011;10197;54.282;10.078;2022-12-07T12:24:35;8.32;;;2.72;;
20073;SDS011;10197;54.282;10.078;2022-12-07T12:27:06;3.08;;;1.70;;
20073;SDS011;10197;54.282;10.078;2022-12-07T12:29:35;5.93;;;1.50;;
20073;SDS011;10197;54.282;10.078;2022-12-07T12:32:11;3.72;;;1.50;;
20073;SDS011;10197;54.282;10.078;2022-12-07T12:34:41;3.05;;;1.60;;
20073;SDS011;10197;54.282;10.078;2022-12-07T12:37:41;1.90;;;1.58;;
20073;SDS011;10197;54.282;10.078;2022-12-07T12:55:16;3.17;;;1.63;;
20073;SDS011;10197;54.282;10.078;2022-12-07T12:57:47;3.38;;;1.58;;
20073;SDS011;10197;54.282;10.078;2022-12-07T13:00:18;4.80;;;1.77;;
20073;SDS011;10197;54.282;10.078;2022-12-07T13:02:48;1.70;;;1.48;;
20073;SDS011;10197;54.282;10.078;2022-12-07T13:05:19;2.22;;;1.65;;
20073;SDS011;10197;54.282;10.078;2022-12-07T13:07:48;5.53;;;1.60;;
20073;SDS011;10197;54.282;10.078;2022-12-07T13:10:21;2.03;;;1.30;;
20073;SDS011;10197;54.282;10.078;2022-12-07T13:12:57;3.63;;;1.67;;
20073;SDS011;10197;54.282;10.078;2022-12-07T13:15:31;3.85;;;1.70;;
20073;SDS011;10197;54.282;10.078;2022-12-07T13:18:00;3.33;;;1.85;;
20073;SDS011;10197;54.282;10.078;2022-12-07T13:20:41;2.35;;;1.50;;
20073;SDS011;10197;54.282;10.078;2022-12-07T13:23:10;3.40;;;1.85;;
20073;SDS011;10197;54.282;10.078;2022-12-07T13:28:35;2.67;;;1.63;;
20073;SDS011;10197;54.282;10.078;2022-12-07T13:31:13;4.53;;;1.75;;
20073;SDS011;10197;54.282;10.078;2022-12-07T13:33:45;2.55;;;1.50;;
20073;SDS011;10197;54.282;10.078;2022-12-07T13:36:20;3.08;;;1.38;;
20073;SDS011;10197;54.282;10.078;2022-12-07T13:38:49;2.70;;;1.63;;
20073;SDS011;10197;54.282;10.078;2022-12-07T13:41:19;1.88;;;1.67;;
20073;SDS011;10197;54.282;10.078;2022-12-07T13:43:48;2.58;;;1.30;;
20073;SDS011;10197;54.282;10.078;2022-12-07T13:46:17;3.38;;;1.55;;
20073;SDS011;10197;54.282;10.078;2022-12-07T13:48:47;3.53;;;1.30;;
20073;SDS011;10197;54.282;10.078;2022-12-07T13:51:24;2.40;;;1.13;;
20073;SDS011;10197;54.282;10.078;2022-12-07T13:53:55;2.05;;;1.17;;
20073;SDS011;10197;54.282;10.078;2022-12-07T13:56:31;3.08;;;1.40;;
20073;SDS011;10197;54.282;10.078;2022-12-07T13:59:00;1.35;;;1.25;;
20073;SDS011;10197;54.282;10.078;2022-12-07T14:01:27;2.35;;;1.10;;
20073;SDS011;10197;54.282;10.078;2022-12-07T14:03:55;12.98;;;11.70;;
20073;SDS011;10197;54.282;10.078;2022-12-07T14:06:25;17.02;;;15.32;;
20073;SDS011;10197;54.282;10.078;2022-12-07T14:09:14;5.18;;;4.28;;
20073;SDS011;10197;54.282;10.078;2022-12-07T14:11:45;5.57;;;3.95;;
20073;SDS011;10197;54.282;10.078;2022-12-07T14:14:17;16.60;;;7.93;;
20073;SDS011;10197;54.282;10.078;2022-12-07T14:16:54;5.60;;;3.30;;
20073;SDS011;10197;54.282;10.078;2022-12-07T14:19:40;4.30;;;2.70;;
20073;SDS011;10197;54.282;10.078;2022-12-07T14:22:19;3.22;;;1.83;;
20073;SDS011;10197;54.282;10.078;2022-12-07T14:24:50;7.18;;;3.45;;
20073;SDS011;10197;54.282;10.078;2022-12-07T14:27:29;6.32;;;3.95;;
20073;SDS011;10197;54.282;10.078;2022-12-07T14:29:59;3.00;;;2.50;;
20073;SDS011;10197;54.282;10.078;2022-12-07T14:32:29;2.95;;;1.80;;
20073;SDS011;10197;54.282;10.078;2022-12-07T14:34:57;3.15;;;2.35;;
20073;SDS011;10197;54.282;10.078;2022-12-07T14:37:27;2.65;;;2.17;;
20073;SDS011;10197;54.282;10.078;2022-12-07T14:39:57;2.65;;;1.90;;
20073;SDS011;10197;54.282;10.078;2022-12-07T14:42:26;2.78;;;1.98;;
20073;SDS011;10197;54.282;10.078;2022-12-07T14:44:55;3.03;;;1.60;;
20073;SDS011;10197;54.282;10.078;2022-12-07T14:47:22;4.32;;;2.33;;
20073;SDS011;10197;54.282;10.078;2022-12-07T14:49:49;12.10;;;5.90;;
20073;SDS011;10197;54.282;10.078;2022-12-07T14:52:16;6.82;;;3.88;;
20073;SDS011;10197;54.282;10.078;2022-12-07T14:54:47;20.27;;;10.15;;
20073;SDS011;10197;54.282;10.078;2022-12-07T14:57:14;8.40;;;4.90;;
20073;SDS011;10197;54.282;10.078;2022-12-07T14:59:41;12.93;;;7.25;;
20073;SDS011;10197;54.282;10.078;2022-12-07T15:02:09;9.20;;;4.72;;
20073;SDS011;10197;54.282;10.078;2022-12-07T15:04:37;5.97;;;4.35;;
20073;SDS011;10197;54.282;10.078;2022-12-07T15:07:04;24.55;;;13.70;;
20073;SDS011;10197;54.282;10.078;2022-12-07T15:09:35;20.95;;;12.43;;